Terminal Aerodrome Forecast
Issued by NWS

Home | Current Version | Previous Version | Text Only | Print | Product List | Glossary On
Versions: 1 2 3 4 5 6 7 8 9 10 11 12 13 14 15 16 17 18 19 20 21
938
FTUS46 KMTR 271720
TAFSTS
TAF
KSTS 271720Z 2718/2818 30005KT P6SM FEW001 FEW100
     FM272200 26008KT P6SM FEW100
     FM280300 VRB03KT P6SM FEW100
     FM281100 00000KT 1/2SM FG VV002
     FM281500 VRB03KT P6SM SKC=

USA.gov is the U.S. government's official web portal to all federal, state and local government web resources and services.